Aviation Digital Data Service (ADDS)

Output produced by METARs form (0747 UTC 25 April 2014)
found at http://aviationweather.gov/adds/metars/
 
KEWN 250531Z 2506/2606 00000KT P6SM SKC 
     FM251000 16005KT P6SM BKN020 BKN035 
     FM251400 19014G22KT P6SM VCSH SCT020 BKN035 
     FM252000 21012G22KT P6SM VCTS BKN035CB 
     FM260300 24009KT P6SM SCT250